createdAt,value
2022-11-04T00:01:05.527Z,99876.95
2022-11-04T00:02:07.876Z,99875.15
2022-11-04T00:03:10.397Z,99876.95
2022-11-04T00:04:14.072Z,99876.11
2022-11-04T00:05:16.586Z,99873.55
2022-11-04T00:06:18.987Z,99873.43
2022-11-04T00:07:21.137Z,99869.91
2022-11-04T00:08:24.279Z,99869.03
2022-11-04T00:09:27.817Z,99871.59
2022-11-04T00:10:30.071Z,99869.03
2022-11-04T00:11:32.284Z,99870.75
2022-11-04T00:12:34.728Z,99868.91
2022-11-04T00:13:38.212Z,99873.43
2022-11-04T00:14:40.911Z,99874.27
2022-11-04T00:15:44.346Z,99872.59
2022-11-04T00:16:46.521Z,99869.03
2022-11-04T00:17:49.094Z,99863.67
2022-11-04T00:18:51.098Z,99859.18
2022-11-04T00:19:53.794Z,99864.55
2022-11-04T00:20:56.754Z,99865.39
2022-11-04T00:21:58.965Z,99866.34
2022-11-04T00:23:01.590Z,99869.03
2022-11-04T00:24:04.642Z,99860.48
2022-11-04T00:25:08.032Z,99860.48
2022-11-04T00:26:10.479Z,99868.19
2022-11-04T00:28:26.833Z,99856.57
2022-11-04T00:29:29.139Z,99853.70
2022-11-04T00:30:32.026Z,99857.34
2022-11-04T00:31:34.063Z,99858.19
2022-11-04T00:32:36.059Z,99858.30
2022-11-04T00:33:39.103Z,99860.98
2022-11-04T00:34:41.341Z,99857.46
2022-11-04T00:35:56.595Z,99851.98
2022-11-04T00:36:59.252Z,99844.78
2022-11-04T00:38:01.908Z,99845.66
2022-11-04T00:39:04.489Z,99846.63
2022-11-04T00:40:08.301Z,99845.66
2022-11-04T00:41:11.296Z,99853.70
2022-11-04T00:42:13.458Z,99849.30
2022-11-04T00:43:15.551Z,99850.14
2022-11-04T00:44:17.559Z,99851.87
2022-11-04T00:45:19.699Z,99853.82
2022-11-04T00:46:21.821Z,99849.53
2022-11-04T00:47:24.801Z,99847.08
2022-11-04T00:48:27.799Z,99853.52
2022-11-04T00:49:30.190Z,99847.51
2022-11-04T00:50:32.394Z,99853.10
2022-11-04T00:51:34.604Z,99847.09
2022-11-04T00:52:36.742Z,99845.52
2022-11-04T00:53:38.854Z,99844.87
2022-11-04T00:54:40.944Z,99844.10
2022-11-04T00:55:43.477Z,99843.48
2022-11-04T00:56:45.595Z,99843.59
2022-11-04T00:57:47.712Z,99842.95
2022-11-04T00:58:50.810Z,99837.70
2022-11-04T00:59:53.591Z,99835.25
2022-11-04T01:00:57.000Z,99840.72
2022-11-04T01:01:59.933Z,99839.95
2022-11-04T01:03:02.271Z,99841.91
2022-11-04T01:04:05.325Z,99842.02
2022-11-04T01:05:08.269Z,99834.17
2022-11-04T01:06:10.438Z,99846.72
2022-11-04T01:07:13.704Z,99836.97
2022-11-04T01:08:16.977Z,99834.40
2022-11-04T01:09:19.128Z,99841.70
2022-11-04T01:10:21.251Z,99839.98
2022-11-04T01:11:23.627Z,99833.78
2022-11-04T01:12:26.179Z,99828.42
2022-11-04T01:13:28.302Z,99824.87
2022-11-04T01:14:31.269Z,99828.53
2022-11-04T01:15:35.358Z,99837.53
2022-11-04T01:16:37.713Z,99832.17
2022-11-04T01:17:39.723Z,99826.92
2022-11-04T01:18:41.828Z,99831.29
2022-11-04T01:19:44.258Z,99836.77
2022-11-04T01:20:47.394Z,99828.73
2022-11-04T01:21:50.654Z,99823.37
2022-11-04T01:22:52.801Z,99834.08
2022-11-04T01:23:55.369Z,99835.80
2022-11-04T01:24:57.732Z,99833.23
2022-11-04T01:26:00.201Z,99838.59
2022-11-04T01:27:03.146Z,99830.56
2022-11-04T01:28:05.569Z,99828.80
2022-11-04T01:29:08.063Z,99831.48
2022-11-04T01:30:12.788Z,99834.27
2022-11-04T01:31:16.847Z,99834.27
2022-11-04T01:32:19.394Z,99824.41
2022-11-04T01:33:21.789Z,99821.73
2022-11-04T01:34:23.780Z,99831.59
2022-11-04T01:35:26.244Z,99828.92
2022-11-04T01:36:28.329Z,99826.23
2022-11-04T01:37:31.943Z,99820.04
2022-11-04T01:38:34.116Z,99818.20
2022-11-04T01:39:36.308Z,99823.56
2022-11-04T01:40:39.315Z,99822.72
2022-11-04T01:41:42.461Z,99827.20
2022-11-04T01:42:44.592Z,99821.84
2022-11-04T01:43:54.507Z,99820.16
2022-11-04T01:44:58.299Z,99823.78
2022-11-04T01:46:00.521Z,99823.78
2022-11-04T01:47:02.718Z,99821.11
2022-11-04T01:48:07.404Z,99819.39
2022-11-04T01:49:25.122Z,99827.42
2022-11-04T01:50:29.274Z,99821.22
2022-11-04T01:51:32.527Z,99824.85
2022-11-04T01:53:49.821Z,99824.13
2022-11-04T01:54:54.230Z,99823.02
2022-11-04T01:55:59.206Z,99823.02
2022-11-04T01:57:02.737Z,99823.02
2022-11-04T01:58:08.222Z,99823.02
2022-11-04T01:59:14.185Z,99826.58
2022-11-04T02:00:16.629Z,99826.58
2022-11-04T02:01:18.956Z,99827.42
2022-11-04T02:02:21.914Z,99827.42
2022-11-04T02:04:40.482Z,99824.87
2022-11-04T02:05:43.480Z,99827.31
2022-11-04T02:06:46.854Z,99826.46
2022-11-04T02:07:50.108Z,99821.11
2022-11-04T02:08:52.286Z,99826.46
2022-11-04T02:09:55.380Z,99832.66
2022-11-04T02:10:58.548Z,99829.88
2022-11-04T02:12:01.420Z,99821.95
2022-11-04T02:13:03.851Z,99830.86
2022-11-04T02:14:07.106Z,99820.16
2022-11-04T02:15:09.957Z,99821.95
2022-11-04T02:17:50.786Z,99833.78
2022-11-04T02:19:31.626Z,99827.31
2022-11-04T02:20:54.447Z,99826.46
2022-11-04T02:22:02.924Z,99826.58
2022-11-04T02:23:27.411Z,99823.13
2022-11-04T02:24:45.561Z,99822.28
2022-11-04T02:26:03.727Z,99825.08
2022-11-04T02:27:09.639Z,99819.83
2022-11-04T02:28:27.619Z,99815.43
2022-11-04T02:29:36.591Z,99817.34
2022-11-04T02:30:50.853Z,99821.85
2022-11-04T02:32:02.725Z,99814.78
2022-11-04T02:34:42.114Z,99815.09
2022-11-04T02:37:14.575Z,99820.35
2022-11-04T02:38:50.285Z,99823.03
2022-11-04T02:39:55.425Z,99811.48
2022-11-04T02:41:07.454Z,99818.63
2022-11-04T02:42:39.723Z,99815.95
2022-11-04T02:43:48.433Z,99810.60
2022-11-04T02:45:11.276Z,99812.55
2022-11-04T02:46:25.863Z,99815.22
2022-11-04T02:47:28.858Z,99814.38
2022-11-04T02:48:35.774Z,99807.30
2022-11-04T02:49:58.645Z,99819.73
2022-11-04T02:52:57.489Z,99809.13
2022-11-04T02:54:15.958Z,99816.06
2022-11-04T02:56:48.460Z,99810.92
2022-11-04T02:57:50.784Z,99813.50
2022-11-04T02:59:03.969Z,99805.47
2022-11-04T03:01:20.416Z,99807.17
2022-11-04T03:03:40.414Z,99798.30
2022-11-04T03:04:46.309Z,99801.61
2022-11-04T03:05:49.859Z,99798.09
2022-11-04T03:06:52.001Z,99802.37
2022-11-04T03:07:55.790Z,99800.44
2022-11-04T03:08:57.912Z,99795.08
2022-11-04T03:10:02.111Z,99794.97
2022-11-04T03:11:13.466Z,99795.73
2022-11-04T03:12:17.318Z,99798.41
2022-11-04T03:13:22.465Z,99802.78
2022-11-04T03:14:28.525Z,99801.82
2022-11-04T03:15:33.899Z,99800.86
2022-11-04T03:18:06.767Z,99799.16
2022-11-04T03:19:36.468Z,99804.27
2022-11-04T03:20:38.612Z,99796.24
2022-11-04T03:21:44.485Z,99800.75
2022-11-04T03:22:47.612Z,99806.95
2022-11-04T03:23:50.078Z,99809.63
2022-11-04T03:24:52.192Z,99810.51
2022-11-04T03:26:01.205Z,99811.35
2022-11-04T03:27:28.384Z,99808.67
2022-11-04T03:29:02.980Z,99811.35
2022-11-04T03:30:11.455Z,99805.16
2022-11-04T03:32:47.042Z,99810.75
2022-11-04T03:33:50.570Z,99803.55
2022-11-04T03:34:52.721Z,99810.73
2022-11-04T03:35:55.678Z,99813.41
2022-11-04T03:36:58.165Z,99807.17
2022-11-04T03:38:00.573Z,99807.06
2022-11-04T03:39:03.073Z,99810.62
2022-11-04T03:40:07.851Z,99807.06
2022-11-04T03:41:13.798Z,99807.06
2022-11-04T03:42:15.940Z,99808.90
2022-11-04T03:43:23.959Z,99808.78
2022-11-04T03:44:26.024Z,99814.14
2022-11-04T03:45:28.052Z,99812.31
2022-11-04T03:46:30.228Z,99814.98
2022-11-04T03:47:32.206Z,99813.19
2022-11-04T03:48:34.712Z,99820.34
2022-11-04T03:49:37.517Z,99811.35
2022-11-04T03:50:41.314Z,99809.55
2022-11-04T03:51:43.408Z,99815.75
2022-11-04T03:52:46.458Z,99807.83
2022-11-04T03:53:48.583Z,99814.03
2022-11-04T03:54:50.690Z,99816.70
2022-11-04T03:56:12.190Z,99822.06
2022-11-04T03:58:44.785Z,99815.03
2022-11-04T04:00:09.318Z,99814.80
2022-11-04T04:01:39.690Z,99816.59
2022-11-04T04:03:01.144Z,99815.86
2022-11-04T04:04:22.046Z,99815.86
2022-11-04T04:06:39.348Z,99818.89
2022-11-04T04:07:44.454Z,99819.61
2022-11-04T04:08:52.797Z,99813.41
2022-11-04T04:09:58.721Z,99802.78
2022-11-04T04:11:22.574Z,99808.05
2022-11-04T04:12:36.552Z,99814.25
2022-11-04T04:13:42.817Z,99802.70
2022-11-04T04:15:00.598Z,99808.90
2022-11-04T04:16:12.344Z,99727.55
2022-11-04T04:17:30.150Z,99811.58
2022-11-04T04:19:55.759Z,99809.98
2022-11-04T04:20:59.517Z,99808.05
2022-11-04T04:22:05.043Z,99810.73
2022-11-04T04:23:10.576Z,99810.73
2022-11-04T04:24:13.197Z,99811.58
2022-11-04T04:25:15.727Z,99813.19
2022-11-04T04:26:18.867Z,99801.59
2022-11-04T04:27:21.634Z,99806.00
2022-11-04T04:28:23.643Z,99804.20
2022-11-04T04:29:26.243Z,99811.24
2022-11-04T04:30:29.422Z,99807.61
2022-11-04T04:31:32.434Z,99803.97
2022-11-04T04:33:49.982Z,99806.77
2022-11-04T04:34:51.970Z,99816.38
2022-11-04T04:35:54.789Z,99816.33
2022-11-04T04:37:06.059Z,99818.09
2022-11-04T04:38:26.163Z,99814.49
2022-11-04T04:42:00.813Z,99826.05
2022-11-04T04:43:03.902Z,99817.17
2022-11-04T04:44:23.893Z,99814.49
2022-11-04T06:51:31.944Z,99881.28
2022-11-04T06:52:36.878Z,99894.09
2022-11-04T06:53:38.121Z,99885.67
2022-11-04T06:54:41.056Z,99894.95
2022-11-04T06:55:44.214Z,99898.78
2022-11-04T06:56:46.784Z,99901.78
2022-11-04T06:57:50.825Z,99900.22
2022-11-04T06:58:53.660Z,99882.65
2022-11-04T06:59:57.500Z,99890.80
2022-11-04T07:01:01.067Z,99877.67
2022-11-04T07:02:03.506Z,99890.47
2022-11-04T07:03:06.262Z,99890.47
2022-11-04T07:04:09.726Z,99880.93
2022-11-04T07:05:12.183Z,99879.39
2022-11-04T07:06:14.375Z,99881.50
2022-11-04T07:07:16.383Z,99887.16
2022-11-04T07:08:19.022Z,99889.26
2022-11-04T07:09:21.937Z,99883.34
2022-11-04T07:10:24.499Z,99880.16
2022-11-04T07:11:28.493Z,99883.20
2022-11-04T07:12:31.983Z,99880.89
2022-11-04T07:13:34.169Z,99878.67
2022-11-04T07:14:36.338Z,99884.48
2022-11-04T07:15:38.688Z,99878.73
2022-11-04T07:16:41.572Z,99872.95
2022-11-04T07:17:43.591Z,99887.73
2022-11-04T07:18:46.474Z,99877.63
2022-11-04T07:19:49.727Z,99875.52
2022-11-04T07:20:52.488Z,99872.63
2022-11-04T07:21:54.616Z,99872.31
2022-11-04T07:22:57.392Z,99877.38
2022-11-04T07:25:03.720Z,99867.86
2022-11-04T07:28:12.611Z,99878.80
2022-11-04T07:36:32.227Z,99874.00
2022-11-04T07:40:41.228Z,99869.94
2022-11-04T07:46:07.798Z,99877.67
2022-11-04T07:47:12.297Z,99876.69
2022-11-04T07:48:14.506Z,99879.36
2022-11-04T07:49:17.579Z,99874.88
2022-11-04T07:50:19.792Z,99873.89
2022-11-04T07:51:21.884Z,99876.58
2022-11-04T07:52:24.950Z,99873.89
2022-11-04T07:53:28.652Z,99870.27
2022-11-04T07:54:31.054Z,99869.42
2022-11-04T07:55:35.137Z,99873.81
2022-11-04T07:56:38.743Z,99876.50
2022-11-04T07:57:40.855Z,99880.02
2022-11-04T07:58:42.947Z,99876.38
2022-11-04T07:59:45.179Z,99881.63
2022-11-04T08:00:47.471Z,99877.23
2022-11-04T08:01:50.591Z,99881.63
2022-11-04T08:02:53.570Z,99882.48
2022-11-04T08:03:56.407Z,99879.80
2022-11-04T08:04:58.418Z,99878.95
2022-11-04T08:06:01.965Z,99880.64
2022-11-04T08:07:09.050Z,99886.00
2022-11-04T08:08:12.298Z,99883.32
2022-11-04T08:09:15.163Z,99876.16
2022-11-04T08:10:19.052Z,99880.64
2022-11-04T08:11:22.534Z,99878.84
2022-11-04T08:12:25.714Z,99878.84
2022-11-04T08:13:31.277Z,99880.64
2022-11-04T08:14:33.457Z,99876.16
2022-11-04T08:15:37.849Z,99877.97
2022-11-04T08:16:40.017Z,99880.64
2022-11-04T08:17:42.316Z,99875.28
2022-11-04T08:18:44.408Z,99873.48
2022-11-04T08:19:48.623Z,99878.84
2022-11-04T08:20:51.787Z,99868.13
2022-11-04T08:21:53.945Z,99874.33
2022-11-04T08:22:57.135Z,99878.77
2022-11-04T08:23:59.674Z,99877.92
2022-11-04T08:25:02.431Z,99874.25
2022-11-04T08:26:09.437Z,99878.66
2022-11-04T08:27:11.501Z,99875.02
2022-11-04T08:28:13.616Z,99881.22
2022-11-04T08:29:17.738Z,99879.42
2022-11-04T08:30:20.118Z,99879.42
2022-11-04T08:31:24.684Z,99876.74
2022-11-04T08:32:26.900Z,99881.11
2022-11-04T08:33:30.447Z,99884.66
2022-11-04T08:34:32.506Z,99883.79
2022-11-04T08:35:40.751Z,99888.30
2022-11-04T08:36:39.834Z,99881.11
2022-11-04T08:38:45.785Z,99889.03
2022-11-04T08:39:49.110Z,99881.98
2022-11-04T08:40:55.674Z,99885.52
2022-11-04T08:41:55.317Z,99887.34
2022-11-04T08:42:58.760Z,99884.66
2022-11-04T08:44:02.388Z,99885.52
2022-11-04T08:45:05.986Z,99875.75
2022-11-04T08:46:09.217Z,99873.95
2022-11-04T08:47:11.346Z,99880.16
2022-11-04T08:48:14.516Z,99884.66
2022-11-04T08:49:20.974Z,99878.43
2022-11-04T08:50:21.971Z,99879.31
2022-11-04T08:51:26.496Z,99882.83
2022-11-04T08:52:28.700Z,99883.67
2022-11-04T08:53:30.910Z,99876.52
2022-11-04T08:54:33.356Z,99877.36
2022-11-04T08:55:35.451Z,99881.88
2022-11-04T08:56:39.959Z,99884.55
2022-11-04T08:57:42.114Z,99887.23
2022-11-04T08:58:44.294Z,99886.28
2022-11-04T08:59:48.152Z,99880.92
2022-11-04T09:00:51.207Z,99886.17
2022-11-04T09:01:53.331Z,99880.92
2022-11-04T09:02:56.424Z,99872.01
2022-11-04T09:04:00.811Z,99879.20
2022-11-04T09:05:03.261Z,99881.88
2022-11-04T09:07:27.532Z,99889.25
2022-11-04T09:08:29.573Z,99889.03
2022-11-04T09:09:31.688Z,99878.32
2022-11-04T09:10:33.774Z,99881.88
2022-11-04T09:11:40.333Z,99881.00
2022-11-04T09:12:45.221Z,99876.52
2022-11-04T09:13:47.511Z,99880.92
2022-11-04T09:14:50.661Z,99879.09
2022-11-04T09:15:53.248Z,99878.24
2022-11-04T09:16:55.544Z,99883.60
2022-11-04T09:17:58.168Z,99884.44
2022-11-04T09:19:00.261Z,99875.56
2022-11-04T09:20:03.856Z,99874.69
2022-11-04T09:21:06.882Z,99880.05
2022-11-04T09:22:08.953Z,99868.48
2022-11-04T09:23:13.246Z,99872.97
2022-11-04T09:24:15.763Z,99870.28
2022-11-04T09:25:17.768Z,99871.28
2022-11-04T09:26:20.281Z,99865.92
2022-11-04T09:27:42.205Z,99866.77
2022-11-04T09:28:44.463Z,99865.92
2022-11-04T09:29:47.542Z,99865.04
2022-11-04T09:30:49.706Z,99865.92
2022-11-04T09:31:51.814Z,99870.40
2022-11-04T09:32:53.866Z,99865.04
2022-11-04T09:33:57.898Z,99868.59
2022-11-04T09:34:59.954Z,99866.88
2022-11-04T09:36:02.710Z,99867.72
2022-11-04T09:37:04.739Z,99869.55
2022-11-04T09:38:06.910Z,99869.66
2022-11-04T09:39:09.404Z,99866.11
2022-11-04T09:40:15.982Z,99868.78
2022-11-04T09:41:59.511Z,99866.11
2022-11-04T09:43:32.961Z,99867.94
2022-11-04T09:45:20.548Z,99864.42
2022-11-04T09:46:01.302Z,99862.89
2022-11-04T09:47:03.599Z,99869.31
2022-11-04T09:48:07.045Z,99864.06
2022-11-04T09:49:09.904Z,99871.22
2022-11-04T09:50:30.458Z,99867.80
2022-11-04T09:51:53.306Z,99871.33
2022-11-04T09:52:39.705Z,99872.20
2022-11-04T09:53:48.885Z,99865.34
2022-11-04T09:55:22.162Z,99875.07
2022-11-04T09:56:35.846Z,99868.03
2022-11-04T09:57:38.065Z,99872.50
2022-11-04T09:58:40.114Z,99866.41
2022-11-04T09:59:43.456Z,99864.80
2022-11-04T10:00:49.461Z,99861.28
2022-11-04T10:02:05.931Z,99863.95
2022-11-04T10:04:32.371Z,99863.19
2022-11-04T10:07:15.524Z,99871.44
2022-11-04T10:08:37.717Z,99861.58
2022-11-04T10:09:53.617Z,99865.42
2022-11-04T10:11:11.689Z,99862.13
2022-11-04T10:12:37.211Z,99857.72
2022-11-04T10:13:54.914Z,99856.00
2022-11-04T10:15:22.263Z,99855.16
2022-11-04T10:16:50.712Z,99857.83
2022-11-04T10:18:18.162Z,99851.70
2022-11-04T10:19:24.175Z,99855.38
2022-11-04T10:20:33.076Z,99855.55
2022-11-04T10:22:00.107Z,99857.50
2022-11-04T10:23:08.971Z,99860.17
2022-11-04T10:24:20.340Z,99857.60
2022-11-04T10:25:29.508Z,99858.55
2022-11-04T10:26:38.462Z,99859.41
2022-11-04T10:27:43.122Z,99856.73
2022-11-04T10:30:19.266Z,99853.43
2022-11-04T10:31:22.362Z,99862.19
2022-11-04T10:32:30.509Z,99853.31
2022-11-04T10:33:43.024Z,99852.47
2022-11-04T10:34:51.666Z,99846.13
2022-11-04T10:36:00.882Z,99853.20
2022-11-04T10:37:03.263Z,99860.28
2022-11-04T10:38:20.773Z,99859.33
2022-11-04T10:40:40.556Z,99852.26
2022-11-04T10:41:42.657Z,99848.52
2022-11-04T10:42:44.770Z,99850.20
2022-11-04T14:37:55.887Z,99829.64
2022-11-04T14:40:27.894Z,99820.22
2022-11-04T14:41:42.800Z,99823.77
2022-11-04T14:42:49.470Z,99822.02
2022-11-04T14:43:51.542Z,99822.81
2022-11-04T14:44:54.683Z,99829.89
2022-11-04T14:45:57.036Z,99828.25
2022-11-04T14:47:01.961Z,99826.57
2022-11-04T14:48:15.938Z,99827.52
2022-11-04T14:50:34.619Z,99822.27
2022-11-04T14:51:40.218Z,99826.66
2022-11-04T14:52:45.739Z,99832.27
2022-11-04T14:53:48.361Z,99826.18
2022-11-04T14:55:04.065Z,99821.00
2022-11-04T14:56:22.934Z,99821.26
2022-11-04T14:57:21.001Z,99823.97
2022-11-04T14:58:26.107Z,99826.16
2022-11-04T14:59:28.184Z,99824.68
2022-11-04T15:00:38.573Z,99825.91
2022-11-04T15:01:41.190Z,99829.00
2022-11-04T15:02:44.594Z,99824.03
2022-11-04T15:04:54.480Z,99820.64
2022-11-04T15:06:01.457Z,99826.55
2022-11-04T15:07:05.215Z,99826.98
2022-11-04T15:09:43.091Z,99823.66
2022-11-04T15:10:48.520Z,99832.13
2022-11-04T15:13:08.236Z,99829.88
2022-11-04T15:14:25.294Z,99832.13
2022-11-04T15:16:33.870Z,99829.04
2022-11-04T15:17:37.069Z,99835.89
2022-11-04T15:18:39.132Z,99831.16
2022-11-04T15:19:41.449Z,99829.14
2022-11-04T15:20:56.803Z,99831.70
2022-11-04T15:21:59.834Z,99828.80
2022-11-04T15:23:04.320Z,99822.41
2022-11-04T15:24:13.326Z,99832.05
2022-11-04T15:25:15.906Z,99829.27
2022-11-04T15:26:29.722Z,99837.08
2022-11-04T15:27:32.518Z,99825.41
2022-11-04T15:29:55.301Z,99832.34
2022-11-04T15:32:16.608Z,99833.73
2022-11-04T15:33:19.648Z,99831.73
2022-11-04T15:34:23.480Z,99832.58
2022-11-04T15:35:26.562Z,99830.63
2022-11-04T15:37:49.497Z,99832.20
2022-11-04T15:39:05.831Z,99839.96
2022-11-04T15:40:13.721Z,99833.61
2022-11-04T15:41:19.943Z,99832.66
2022-11-04T15:42:29.337Z,99835.22
2022-11-04T15:43:33.996Z,99833.39
2022-11-04T15:44:37.347Z,99832.42
2022-11-04T15:45:50.866Z,99831.47
2022-11-04T15:48:29.578Z,99831.55
2022-11-04T15:49:33.520Z,99835.88
2022-11-04T15:51:51.712Z,99837.86
2022-11-04T15:52:54.692Z,99842.19
2022-11-04T15:55:32.128Z,99842.27
2022-11-04T15:56:40.632Z,99839.51
2022-11-04T15:57:44.485Z,99840.36
2022-11-04T15:58:48.165Z,99841.23
2022-11-04T16:00:05.987Z,99843.91
2022-11-04T16:01:13.692Z,99834.03
2022-11-04T16:02:29.017Z,99834.88
2022-11-04T16:03:31.646Z,99839.28
2022-11-04T16:04:34.122Z,99841.12
2022-11-04T16:05:37.662Z,99841.12
2022-11-04T16:06:44.270Z,99841.23
2022-11-04T16:07:47.940Z,99837.67
2022-11-04T16:09:01.416Z,99838.44
2022-11-04T16:10:24.909Z,99837.56
2022-11-04T16:11:27.072Z,99844.64
2022-11-04T16:12:35.507Z,99835.64
2022-11-04T16:13:37.785Z,99846.25
2022-11-04T16:16:05.464Z,99840.00
2022-11-04T16:17:09.732Z,99840.77
2022-11-04T16:18:24.716Z,99838.97
2022-11-04T16:19:29.024Z,99839.81
2022-11-04T16:20:32.814Z,99836.91
2022-11-04T16:21:35.260Z,99836.91
2022-11-04T16:22:38.938Z,99843.11
2022-11-04T16:23:44.348Z,99844.83
2022-11-04T16:24:49.938Z,99843.88
2022-11-04T16:27:10.631Z,99846.73
2022-11-04T16:29:36.721Z,99852.83
2022-11-04T16:30:39.062Z,99846.44
2022-11-04T16:31:41.520Z,99848.16
2022-11-04T16:32:47.561Z,99844.60
2022-11-04T16:33:51.496Z,99847.20
2022-11-04T16:35:01.517Z,99849.77
2022-11-04T16:36:15.211Z,99844.41
2022-11-04T16:37:17.359Z,99834.53
2022-11-04T16:38:19.947Z,99843.41
2022-11-04T16:39:22.817Z,99843.33
2022-11-04T16:40:26.518Z,99844.17
2022-11-04T16:41:29.249Z,99844.06
2022-11-04T16:42:31.469Z,99836.02
2022-11-04T16:43:34.610Z,99840.42
2022-11-04T16:44:37.279Z,99843.94
2022-11-04T16:45:39.429Z,99832.61
2022-11-04T16:46:41.985Z,99832.61
2022-11-04T16:47:44.341Z,99842.87
2022-11-04T16:48:47.355Z,99828.62
2022-11-04T16:49:51.453Z,99832.14
2022-11-04T16:50:54.025Z,99834.83
2022-11-04T16:51:59.801Z,99841.91
2022-11-04T16:53:02.259Z,99834.71
2022-11-04T16:54:05.403Z,99838.23
2022-11-04T16:55:07.967Z,99837.27
2022-11-04T16:56:10.203Z,99839.95
2022-11-04T16:57:13.210Z,99839.95
2022-11-04T16:58:17.834Z,99831.91
2022-11-04T16:59:20.659Z,99833.75
2022-11-04T17:00:25.096Z,99833.63
2022-11-04T17:01:30.060Z,99842.52
2022-11-04T17:02:34.714Z,99846.08
2022-11-04T17:03:36.824Z,99847.87
2022-11-04T17:04:39.981Z,99854.13
2022-11-04T17:05:42.106Z,99846.08
2022-11-04T17:06:44.740Z,99855.92
2022-11-04T17:07:53.691Z,99859.48
2022-11-04T17:08:58.645Z,99854.13
2022-11-04T17:09:56.883Z,99853.12
2022-11-04T17:11:00.118Z,99858.41
2022-11-04T17:12:03.322Z,99854.84
2022-11-04T17:14:20.160Z,99852.27
2022-11-04T17:15:22.334Z,99849.37
2022-11-04T17:16:24.543Z,99850.25
2022-11-04T17:17:27.139Z,99849.37
2022-11-04T17:18:29.934Z,99850.25
2022-11-04T17:19:34.746Z,99853.80
2022-11-04T17:20:39.018Z,99843.92
2022-11-04T17:21:42.886Z,99854.65
2022-11-04T17:22:45.808Z,99845.64
2022-11-04T17:23:48.509Z,99842.13
2022-11-04T17:24:51.997Z,99841.13
2022-11-04T17:25:55.593Z,99848.21
2022-11-04T17:26:59.438Z,99843.81
2022-11-04T17:28:02.047Z,99846.48
2022-11-04T17:29:06.065Z,99837.48
2022-11-04T17:30:10.480Z,99839.32
2022-11-04T17:32:29.278Z,99838.30
2022-11-04T17:33:32.086Z,99843.48
2022-11-04T17:34:34.766Z,99845.21
2022-11-04T17:35:38.078Z,99854.95
2022-11-04T17:36:42.012Z,99845.94
2022-11-04T17:37:44.462Z,99845.94
2022-11-04T17:38:48.658Z,99850.34
2022-11-04T17:39:50.839Z,99846.70
2022-11-04T17:40:53.406Z,99854.63
2022-11-04T17:41:56.742Z,99847.42
2022-11-04T17:42:59.019Z,99848.27
2022-11-04T17:44:02.516Z,99855.35
2022-11-04T17:45:05.540Z,99848.16
2022-11-04T17:46:09.376Z,99849.03
2022-11-04T17:47:11.434Z,99853.43
2022-11-04T17:48:13.456Z,99848.91
2022-11-04T17:49:23.363Z,99853.31
2022-11-04T17:50:25.564Z,99852.32
2022-11-04T17:51:29.045Z,99857.69
2022-11-04T17:52:31.725Z,99845.16
2022-11-04T17:53:34.081Z,99851.36
2022-11-04T17:54:37.502Z,99852.23
2022-11-04T17:55:40.882Z,99853.08
2022-11-04T17:56:43.809Z,99851.23
2022-11-04T17:57:45.903Z,99852.12
2022-11-04T17:58:50.278Z,99854.80
2022-11-04T21:00:58.131Z,99933.63
2022-11-04T21:02:01.559Z,99924.17
2022-11-04T21:03:04.905Z,99928.72
2022-11-04T21:04:09.792Z,99928.02
2022-11-04T21:05:12.606Z,99930.77
2022-11-04T21:06:15.392Z,99920.16
2022-11-04T21:07:17.554Z,99921.91
2022-11-04T21:08:20.008Z,99920.98
2022-11-04T21:09:22.615Z,99920.98
2022-11-04T21:10:25.339Z,99923.66
2022-11-04T21:11:31.723Z,99922.83
2022-11-04T21:12:34.793Z,99923.69
2022-11-04T21:13:37.085Z,99917.58
2022-11-04T21:14:39.547Z,99922.03
2022-11-04T21:15:42.059Z,99918.68
2022-11-04T21:16:46.892Z,99920.56
2022-11-04T21:17:59.260Z,99921.56
2022-11-04T21:19:11.087Z,99930.75
2022-11-04T21:26:44.721Z,99920.91
2022-11-04T21:27:48.414Z,99931.95
2022-11-04T21:28:57.264Z,99927.05
2022-11-04T21:30:00.557Z,99930.38
2022-11-04T21:31:05.163Z,99927.41
2022-11-04T21:32:07.408Z,99930.71
2022-11-04T21:33:09.600Z,99930.41
2022-11-04T21:34:11.699Z,99925.57
2022-11-04T21:35:14.127Z,99931.48
2022-11-04T21:36:16.247Z,99930.19
2022-11-04T21:37:19.249Z,99926.33
2022-11-04T21:38:21.968Z,99925.98
2022-11-04T21:39:24.232Z,99917.76
2022-11-04T21:40:28.287Z,99923.63
2022-11-04T21:41:31.330Z,99923.44
2022-11-04T21:42:33.379Z,99916.02
2022-11-04T21:43:35.448Z,99928.23
2022-11-04T21:44:37.435Z,99921.80
2022-11-04T21:45:44.037Z,99919.84
2022-11-04T21:46:49.126Z,99918.77
2022-11-04T21:47:52.164Z,99921.26
2022-11-04T21:48:54.828Z,99917.47
2022-11-04T21:49:58.133Z,99920.92
2022-11-04T21:51:05.104Z,99921.77
2022-11-04T21:52:07.855Z,99926.92
2022-11-04T21:53:11.370Z,99923.17
2022-11-04T21:54:13.866Z,99926.62
2022-11-04T21:55:16.230Z,99921.98
2022-11-04T21:56:22.014Z,99919.19
2022-11-04T21:57:24.260Z,99919.10
2022-11-04T21:58:27.339Z,99915.43
2022-11-04T21:59:29.579Z,99914.35
2022-11-04T22:00:31.829Z,99919.60
2022-11-04T22:01:36.341Z,99916.92
2022-11-04T22:02:40.547Z,99915.96
2022-11-04T22:03:44.705Z,99919.38
2022-11-04T22:04:46.961Z,99915.73
2022-11-04T22:06:04.767Z,99914.77
2022-11-04T22:07:07.571Z,99913.81
2022-11-04T22:08:09.879Z,99911.97
2022-11-04T22:09:12.496Z,99907.45
2022-11-04T22:10:16.977Z,99906.48
2022-11-04T22:11:22.307Z,99907.33
2022-11-04T22:12:25.473Z,99909.05
2022-11-04T22:13:28.713Z,99909.05
2022-11-04T22:14:31.170Z,99905.41
2022-11-04T22:15:33.286Z,99912.50
2022-11-04T22:16:36.514Z,99912.50
2022-11-04T22:17:38.659Z,99911.50
2022-11-04T22:18:40.849Z,99915.06
2022-11-04T22:19:44.512Z,99915.06
2022-11-04T22:20:50.867Z,99919.47
2022-11-04T22:21:53.030Z,99919.47
2022-11-04T22:22:55.441Z,99920.31
2022-11-04T22:23:57.639Z,99922.03
2022-11-04T22:24:59.751Z,99920.20
2022-11-04T22:26:03.402Z,99926.41
2022-11-04T22:27:08.513Z,99928.12
2022-11-04T22:28:13.148Z,99923.64
2022-11-04T22:29:17.739Z,99930.69
2022-11-04T22:30:21.044Z,99929.84
2022-11-04T22:31:26.038Z,99926.20
2022-11-04T22:32:29.216Z,99928.89
2022-11-04T22:33:32.158Z,99926.09
2022-11-04T22:34:34.395Z,99934.98
2022-11-04T22:35:37.217Z,99916.02
2022-11-04T22:36:39.345Z,99916.02
2022-11-04T22:37:44.207Z,99935.83
2022-11-04T22:38:46.901Z,99942.91
2022-11-04T22:39:49.001Z,99937.55
2022-11-04T22:40:55.790Z,99942.91
2022-11-04T22:41:58.395Z,99941.11
2022-11-04T22:43:01.050Z,99936.70
2022-11-04T22:44:03.380Z,99935.73
2022-11-04T22:45:06.520Z,99928.53
2022-11-04T22:46:11.888Z,99938.30
2022-11-04T22:47:14.051Z,99940.11
2022-11-04T22:48:16.728Z,99935.62
2022-11-04T22:49:19.178Z,99942.80
2022-11-04T22:50:22.248Z,99943.67
2022-11-04T22:51:24.743Z,99940.98
2022-11-04T22:52:27.482Z,99942.68
2022-11-04T22:53:31.632Z,99948.05
2022-11-04T22:54:35.154Z,99948.05
2022-11-04T22:55:38.995Z,99940.00
2022-11-04T22:56:42.142Z,99942.59
2022-11-04T22:57:45.251Z,99936.34
2022-11-04T22:58:47.397Z,99937.31
2022-11-04T22:59:51.334Z,99939.16
2022-11-04T23:00:55.018Z,99943.55
2022-11-04T23:01:58.157Z,99941.72
2022-11-04T23:03:02.016Z,99944.40
2022-11-04T23:04:05.078Z,99942.59
2022-11-04T23:05:07.961Z,99944.40
2022-11-04T23:06:11.295Z,99942.48
2022-11-04T23:07:13.619Z,99946.13